sensor_id;sensor_type;location;lat;lon;timestamp;P1;durP1;ratioP1;P2;durP2;ratioP2
49820;SDS011;36893;52.520;13.450;2023-03-12T00:02:24;1.40;;;0.70;;
49820;SDS011;36893;52.520;13.450;2023-03-12T00:12:24;0.90;;;0.60;;
49820;SDS011;36893;52.520;13.450;2023-03-12T00:22:25;0.57;;;0.57;;
49820;SDS011;36893;52.520;13.450;2023-03-12T00:32:26;1.23;;;0.80;;
49820;SDS011;36893;52.520;13.450;2023-03-12T00:42:27;2.83;;;0.83;;
49820;SDS011;36893;52.520;13.450;2023-03-12T00:52:27;1.03;;;0.40;;
49820;SDS011;36893;52.520;13.450;2023-03-12T01:02:28;0.43;;;0.30;;
49820;SDS011;36893;52.520;13.450;2023-03-12T01:12:29;1.07;;;0.70;;
49820;SDS011;36893;52.520;13.450;2023-03-12T01:22:29;0.23;;;0.23;;
49820;SDS011;36893;52.520;13.450;2023-03-12T01:32:30;1.30;;;0.67;;
49820;SDS011;36893;52.520;13.450;2023-03-12T01:42:31;0.75;;;0.47;;
49820;SDS011;36893;52.520;13.450;2023-03-12T01:52:32;0.63;;;0.50;;
49820;SDS011;36893;52.520;13.450;2023-03-12T02:02:36;0.50;;;0.37;;
49820;SDS011;36893;52.520;13.450;2023-03-12T02:12:37;0.43;;;0.35;;
49820;SDS011;36893;52.520;13.450;2023-03-12T02:22:39;0.40;;;0.40;;
49820;SDS011;36893;52.520;13.450;2023-03-12T02:32:45;0.28;;;0.25;;
49820;SDS011;36893;52.520;13.450;2023-03-12T02:42:47;3.53;;;0.40;;
49820;SDS011;36893;52.520;13.450;2023-03-12T02:52:48;0.60;;;0.50;;
49820;SDS011;36893;52.520;13.450;2023-03-12T03:02:49;0.47;;;0.40;;
49820;SDS011;36893;52.520;13.450;2023-03-12T03:12:50;0.20;;;0.20;;
49820;SDS011;36893;52.520;13.450;2023-03-12T03:22:51;0.50;;;0.50;;
49820;SDS011;36893;52.520;13.450;2023-03-12T03:32:51;0.17;;;0.17;;
49820;SDS011;36893;52.520;13.450;2023-03-12T03:42:52;0.57;;;0.50;;
49820;SDS011;36893;52.520;13.450;2023-03-12T03:52:53;0.30;;;0.30;;
49820;SDS011;36893;52.520;13.450;2023-03-12T04:02:53;0.50;;;0.37;;
49820;SDS011;36893;52.520;13.450;2023-03-12T04:12:54;0.90;;;0.60;;
49820;SDS011;36893;52.520;13.450;2023-03-12T04:22:55;0.68;;;0.50;;
49820;SDS011;36893;52.520;13.450;2023-03-12T04:32:57;0.82;;;0.38;;
49820;SDS011;36893;52.520;13.450;2023-03-12T04:42:57;0.40;;;0.40;;
49820;SDS011;36893;52.520;13.450;2023-03-12T04:52:58;2.07;;;0.50;;
49820;SDS011;36893;52.520;13.450;2023-03-12T05:02:59;0.53;;;0.30;;
49820;SDS011;36893;52.520;13.450;2023-03-12T05:12:59;0.47;;;0.47;;
49820;SDS011;36893;52.520;13.450;2023-03-12T05:23:00;2.60;;;0.50;;
49820;SDS011;36893;52.520;13.450;2023-03-12T05:33:01;0.37;;;0.33;;
49820;SDS011;36893;52.520;13.450;2023-03-12T05:43:01;0.38;;;0.35;;
49820;SDS011;36893;52.520;13.450;2023-03-12T05:53:02;0.10;;;0.10;;
49820;SDS011;36893;52.520;13.450;2023-03-12T06:03:03;0.17;;;0.17;;
49820;SDS011;36893;52.520;13.450;2023-03-12T06:13:04;0.73;;;0.40;;
49820;SDS011;36893;52.520;13.450;2023-03-12T06:23:05;0.73;;;0.30;;
49820;SDS011;36893;52.520;13.450;2023-03-12T06:33:06;0.20;;;0.20;;
49820;SDS011;36893;52.520;13.450;2023-03-12T06:43:07;1.10;;;0.55;;
49820;SDS011;36893;52.520;13.450;2023-03-12T06:53:11;0.38;;;0.32;;
49820;SDS011;36893;52.520;13.450;2023-03-12T07:03:11;0.30;;;0.30;;
49820;SDS011;36893;52.520;13.450;2023-03-12T07:13:12;0.98;;;0.38;;
49820;SDS011;36893;52.520;13.450;2023-03-12T07:23:13;0.93;;;0.55;;
49820;SDS011;36893;52.520;13.450;2023-03-12T07:33:15;0.30;;;0.20;;
49820;SDS011;36893;52.520;13.450;2023-03-12T07:43:20;0.22;;;0.22;;
49820;SDS011;36893;52.520;13.450;2023-03-12T07:53:22;0.68;;;0.50;;
49820;SDS011;36893;52.520;13.450;2023-03-12T08:03:23;0.20;;;0.20;;
49820;SDS011;36893;52.520;13.450;2023-03-12T08:13:24;0.20;;;0.20;;
49820;SDS011;36893;52.520;13.450;2023-03-12T08:23:25;0.55;;;0.20;;
49820;SDS011;36893;52.520;13.450;2023-03-12T08:33:26;0.45;;;0.35;;
49820;SDS011;36893;52.520;13.450;2023-03-12T08:43:27;0.43;;;0.25;;
49820;SDS011;36893;52.520;13.450;2023-03-12T08:53:29;0.30;;;0.30;;
49820;SDS011;36893;52.520;13.450;2023-03-12T09:03:31;0.95;;;0.38;;
49820;SDS011;36893;52.520;13.450;2023-03-12T09:13:32;0.63;;;0.40;;
49820;SDS011;36893;52.520;13.450;2023-03-12T09:23:33;0.20;;;0.20;;
49820;SDS011;36893;52.520;13.450;2023-03-12T09:33:33;0.23;;;0.23;;
49820;SDS011;36893;52.520;13.450;2023-03-12T09:43:36;0.50;;;0.17;;
49820;SDS011;36893;52.520;13.450;2023-03-12T09:53:41;0.22;;;0.22;;
49820;SDS011;36893;52.520;13.450;2023-03-12T10:04:07;1.15;;;0.52;;
49820;SDS011;36893;52.520;13.450;2023-03-12T10:14:31;0.77;;;0.30;;
49820;SDS011;36893;52.520;13.450;2023-03-12T10:35:17;0.80;;;0.43;;
49820;SDS011;36893;52.520;13.450;2023-03-12T10:45:23;1.15;;;0.47;;
49820;SDS011;36893;52.520;13.450;2023-03-12T10:55:33;0.40;;;0.40;;
49820;SDS011;36893;52.520;13.450;2023-03-12T11:05:35;0.60;;;0.50;;
49820;SDS011;36893;52.520;13.450;2023-03-12T11:15:47;2.53;;;0.95;;
49820;SDS011;36893;52.520;13.450;2023-03-12T11:25:54;1.88;;;0.63;;
49820;SDS011;36893;52.520;13.450;2023-03-12T11:36:27;1.83;;;0.88;;
49820;SDS011;36893;52.520;13.450;2023-03-12T11:56:54;2.10;;;0.68;;
49820;SDS011;36893;52.520;13.450;2023-03-12T12:28:20;1.00;;;0.57;;
49820;SDS011;36893;52.520;13.450;2023-03-12T12:48:39;1.70;;;0.75;;
49820;SDS011;36893;52.520;13.450;2023-03-12T12:58:53;28.00;;;1.92;;
49820;SDS011;36893;52.520;13.450;2023-03-12T13:09:46;5.73;;;0.60;;
49820;SDS011;36893;52.520;13.450;2023-03-12T13:19:57;1.25;;;0.70;;
49820;SDS011;36893;52.520;13.450;2023-03-12T13:40:32;0.73;;;0.43;;
49820;SDS011;36893;52.520;13.450;2023-03-12T13:51:03;1.80;;;0.95;;
49820;SDS011;36893;52.520;13.450;2023-03-12T14:01:18;4.32;;;1.08;;
49820;SDS011;36893;52.520;13.450;2023-03-12T14:11:30;5.10;;;1.50;;
49820;SDS011;36893;52.520;13.450;2023-03-12T14:22:00;3.78;;;1.50;;
49820;SDS011;36893;52.520;13.450;2023-03-12T14:32:05;14.20;;;2.60;;
49820;SDS011;36893;52.520;13.450;2023-03-12T14:42:21;6.05;;;2.00;;
49820;SDS011;36893;52.520;13.450;2023-03-12T14:52:27;2.38;;;1.17;;
49820;SDS011;36893;52.520;13.450;2023-03-12T15:02:29;3.60;;;1.50;;
49820;SDS011;36893;52.520;13.450;2023-03-12T15:12:32;2.83;;;1.27;;
49820;SDS011;36893;52.520;13.450;2023-03-12T15:22:36;4.90;;;1.15;;
49820;SDS011;36893;52.520;13.450;2023-03-12T15:32:37;6.40;;;1.45;;
49820;SDS011;36893;52.520;13.450;2023-03-12T15:42:39;6.93;;;1.43;;
49820;SDS011;36893;52.520;13.450;2023-03-12T15:52:56;4.68;;;1.70;;
49820;SDS011;36893;52.520;13.450;2023-03-12T16:03:02;4.65;;;1.90;;
49820;SDS011;36893;52.520;13.450;2023-03-12T16:13:08;10.27;;;1.63;;
49820;SDS011;36893;52.520;13.450;2023-03-12T16:23:16;3.95;;;1.67;;
49820;SDS011;36893;52.520;13.450;2023-03-12T16:33:19;5.45;;;1.80;;
49820;SDS011;36893;52.520;13.450;2023-03-12T16:43:23;2.22;;;1.20;;
49820;SDS011;36893;52.520;13.450;2023-03-12T16:53:26;4.43;;;1.05;;
49820;SDS011;36893;52.520;13.450;2023-03-12T17:03:31;2.55;;;1.50;;
49820;SDS011;36893;52.520;13.450;2023-03-12T17:13:34;3.03;;;1.30;;
49820;SDS011;36893;52.520;13.450;2023-03-12T17:23:35;2.72;;;1.25;;
49820;SDS011;36893;52.520;13.450;2023-03-12T17:33:36;2.03;;;0.80;;
49820;SDS011;36893;52.520;13.450;2023-03-12T17:43:37;2.05;;;0.93;;
49820;SDS011;36893;52.520;13.450;2023-03-12T17:53:38;2.63;;;1.23;;
49820;SDS011;36893;52.520;13.450;2023-03-12T18:03:40;4.07;;;1.20;;
49820;SDS011;36893;52.520;13.450;2023-03-12T18:13:42;2.60;;;1.27;;
49820;SDS011;36893;52.520;13.450;2023-03-12T18:23:48;5.43;;;1.63;;
49820;SDS011;36893;52.520;13.450;2023-03-12T18:33:49;8.45;;;1.05;;
49820;SDS011;36893;52.520;13.450;2023-03-12T18:43:52;1.05;;;0.50;;
49820;SDS011;36893;52.520;13.450;2023-03-12T18:53:53;3.83;;;1.27;;
49820;SDS011;36893;52.520;13.450;2023-03-12T19:03:54;1.92;;;0.90;;
49820;SDS011;36893;52.520;13.450;2023-03-12T19:13:54;0.77;;;0.57;;
49820;SDS011;36893;52.520;13.450;2023-03-12T19:23:55;3.60;;;1.13;;
49820;SDS011;36893;52.520;13.450;2023-03-12T19:33:57;1.42;;;0.73;;
49820;SDS011;36893;52.520;13.450;2023-03-12T19:43:59;2.15;;;1.38;;
49820;SDS011;36893;52.520;13.450;2023-03-12T19:54:00;2.00;;;1.23;;
49820;SDS011;36893;52.520;13.450;2023-03-12T20:04:01;0.87;;;0.70;;
49820;SDS011;36893;52.520;13.450;2023-03-12T20:14:06;1.88;;;0.80;;
49820;SDS011;36893;52.520;13.450;2023-03-12T20:24:09;2.40;;;1.47;;
49820;SDS011;36893;52.520;13.450;2023-03-12T20:34:10;3.60;;;1.50;;
49820;SDS011;36893;52.520;13.450;2023-03-12T20:44:11;3.10;;;1.07;;
49820;SDS011;36893;52.520;13.450;2023-03-12T20:54:11;3.60;;;1.17;;
49820;SDS011;36893;52.520;13.450;2023-03-12T21:04:12;1.70;;;0.77;;
49820;SDS011;36893;52.520;13.450;2023-03-12T21:14:13;2.22;;;1.15;;
49820;SDS011;36893;52.520;13.450;2023-03-12T21:24:14;1.10;;;0.80;;
49820;SDS011;36893;52.520;13.450;2023-03-12T21:34:15;3.73;;;0.93;;
49820;SDS011;36893;52.520;13.450;2023-03-12T21:44:15;6.80;;;1.23;;
49820;SDS011;36893;52.520;13.450;2023-03-12T21:54:16;1.73;;;0.80;;
49820;SDS011;36893;52.520;13.450;2023-03-12T22:04:17;2.70;;;1.23;;
49820;SDS011;36893;52.520;13.450;2023-03-12T22:14:17;2.80;;;0.93;;
49820;SDS011;36893;52.520;13.450;2023-03-12T22:24:18;1.87;;;1.13;;
49820;SDS011;36893;52.520;13.450;2023-03-12T22:34:18;0.47;;;0.37;;
49820;SDS011;36893;52.520;13.450;2023-03-12T22:44:19;5.60;;;1.30;;
49820;SDS011;36893;52.520;13.450;2023-03-12T22:54:20;1.97;;;0.93;;
49820;SDS011;36893;52.520;13.450;2023-03-12T23:04:20;4.90;;;1.50;;
49820;SDS011;36893;52.520;13.450;2023-03-12T23:14:21;1.67;;;0.93;;
49820;SDS011;36893;52.520;13.450;2023-03-12T23:24:22;2.47;;;1.07;;
49820;SDS011;36893;52.520;13.450;2023-03-12T23:34:22;6.33;;;1.40;;
49820;SDS011;36893;52.520;13.450;2023-03-12T23:44:23;2.93;;;1.40;;
49820;SDS011;36893;52.520;13.450;2023-03-12T23:54:24;2.53;;;1.13;;
